createdAt,value
2018-12-02T00:02:00.004Z,18.10
2018-12-02T00:04:34.288Z,18.47
2018-12-02T00:07:08.625Z,17.60
2018-12-02T00:09:42.972Z,18.77
2018-12-02T00:12:17.328Z,18.93
2018-12-02T00:14:51.613Z,19.23
2018-12-02T00:17:25.906Z,18.30
2018-12-02T00:20:00.204Z,18.53
2018-12-02T00:22:34.580Z,18.30
2018-12-02T00:25:13.168Z,20.23
2018-12-02T00:27:51.282Z,18.43
2018-12-02T00:30:28.670Z,19.87
2018-12-02T00:33:03.024Z,16.87
2018-12-02T00:35:37.376Z,17.60
2018-12-02T00:38:11.724Z,15.33
2018-12-02T00:40:46.044Z,18.63
2018-12-02T00:43:20.372Z,16.70
2018-12-02T00:45:54.772Z,17.27
2018-12-02T00:48:29.102Z,18.97
2018-12-02T00:51:03.457Z,19.20
2018-12-02T00:53:37.825Z,18.03
2018-12-02T00:56:10.877Z,15.47
2018-12-02T00:58:45.988Z,17.27
2018-12-02T01:01:20.289Z,17.27
2018-12-02T01:03:54.587Z,19.50
2018-12-02T01:06:28.920Z,18.40
2018-12-02T01:09:03.331Z,16.87
2018-12-02T01:11:37.635Z,18.23
2018-12-02T01:14:12.624Z,18.27
2018-12-02T01:16:46.923Z,17.90
2018-12-02T01:19:21.255Z,17.93
2018-12-02T01:21:55.545Z,16.17
2018-12-02T01:24:30.037Z,22.20
2018-12-02T01:27:04.452Z,18.57
2018-12-02T01:29:38.750Z,18.03
2018-12-02T01:32:13.037Z,19.07
2018-12-02T01:34:56.859Z,17.67
2018-12-02T01:37:31.167Z,19.73
2018-12-02T01:40:07.474Z,20.67
2018-12-02T01:42:41.795Z,18.23
2018-12-02T01:45:24.315Z,18.57
2018-12-02T01:47:58.613Z,17.07
2018-12-02T01:50:42.837Z,19.17
2018-12-02T01:53:17.100Z,20.37
2018-12-02T01:55:51.436Z,21.67
2018-12-02T01:58:25.856Z,20.97
2018-12-02T02:01:00.160Z,20.33
2018-12-02T02:03:34.491Z,19.20
2018-12-02T02:06:08.805Z,17.97
2018-12-02T02:08:43.141Z,18.93
2018-12-02T02:11:17.455Z,17.90
2018-12-02T02:16:56.453Z,19.07
2018-12-02T02:19:30.771Z,20.27
2018-12-02T02:22:05.249Z,20.63
2018-12-02T02:24:39.511Z,20.13
2018-12-02T02:30:56.762Z,20.43
2018-12-02T02:33:31.036Z,20.17
2018-12-02T02:36:05.749Z,20.70
2018-12-02T02:38:40.097Z,20.60
2018-12-02T02:41:14.433Z,22.73
2018-12-02T02:43:48.734Z,21.37
2018-12-02T02:46:23.016Z,20.67
2018-12-02T02:48:57.301Z,20.57
2018-12-02T02:51:31.611Z,20.43
2018-12-02T02:54:06.330Z,20.43
2018-12-02T02:56:40.612Z,22.30
2018-12-02T02:59:14.939Z,20.03
2018-12-02T03:01:49.270Z,18.30
2018-12-02T03:07:28.055Z,21.63
2018-12-02T03:10:02.400Z,20.87
2018-12-02T03:12:36.732Z,22.77
2018-12-02T03:15:12.183Z,20.83
2018-12-02T03:17:46.559Z,21.03
2018-12-02T03:20:21.723Z,17.43
2018-12-02T03:22:56.308Z,20.77
2018-12-02T03:29:23.769Z,21.70
2018-12-02T03:31:58.079Z,20.33
2018-12-02T03:34:32.364Z,20.80
2018-12-02T03:37:06.716Z,21.90
2018-12-02T03:39:41.012Z,22.33
2018-12-02T03:42:15.341Z,22.67
2018-12-02T03:44:49.682Z,21.60
2018-12-02T03:47:24.021Z,21.27
2018-12-02T03:49:58.334Z,22.23
2018-12-02T03:52:32.739Z,21.30
2018-12-02T03:55:08.207Z,23.63
2018-12-02T04:00:46.663Z,22.87
2018-12-02T04:03:20.940Z,22.37
2018-12-02T04:05:55.300Z,21.47
2018-12-02T04:08:29.588Z,20.07
2018-12-02T04:11:03.949Z,22.13
2018-12-02T04:13:38.302Z,20.30
2018-12-02T04:16:12.572Z,20.97
2018-12-02T04:18:55.058Z,19.57
2018-12-02T04:21:29.400Z,19.77
2018-12-02T04:24:28.716Z,21.17
2018-12-02T04:42:25.553Z,17.37
2018-12-02T04:48:04.096Z,18.60
2018-12-02T04:50:38.395Z,19.20
2018-12-02T04:53:12.744Z,17.40
2018-12-02T04:55:47.044Z,18.37
2018-12-02T04:58:52.223Z,16.43
2018-12-02T05:01:26.575Z,16.47
2018-12-02T05:04:01.247Z,17.37
2018-12-02T05:06:35.530Z,17.07
2018-12-02T05:09:10.282Z,17.10
2018-12-02T05:11:44.604Z,18.50
2018-12-02T05:14:18.932Z,18.13
2018-12-02T05:16:53.589Z,15.80
2018-12-02T06:21:19.961Z,13.97
2018-12-02T06:33:47.817Z,13.03
2018-12-02T06:36:23.722Z,14.03
2018-12-02T06:42:06.095Z,12.80
2018-12-02T06:44:40.397Z,12.43
2018-12-02T06:47:14.690Z,11.97
2018-12-02T06:50:07.466Z,13.33
2018-12-02T06:52:41.788Z,12.53
2018-12-02T06:55:29.290Z,11.10
2018-12-02T07:02:25.385Z,13.77
2018-12-02T07:04:59.676Z,12.90
2018-12-02T07:07:33.912Z,12.77
2018-12-02T07:10:08.206Z,9.93
2018-12-02T07:12:42.479Z,10.30
2018-12-02T07:15:16.752Z,10.50
2018-12-02T07:17:54.968Z,8.33
2018-12-02T07:20:31.007Z,11.73
2018-12-02T07:23:08.684Z,14.53
2018-12-02T07:25:44.890Z,11.73
2018-12-02T07:28:19.167Z,10.90
2018-12-02T07:30:53.576Z,12.07
2018-12-02T07:33:27.971Z,11.80
2018-12-02T07:36:02.281Z,12.77
2018-12-02T07:39:00.281Z,13.10
2018-12-02T07:41:35.432Z,13.27
2018-12-02T07:44:09.934Z,13.87
2018-12-02T07:46:44.429Z,13.20
2018-12-02T07:49:18.905Z,15.03
2018-12-02T07:52:04.642Z,12.67
2018-12-02T07:54:39.293Z,14.73
2018-12-02T07:57:13.812Z,13.93
2018-12-02T08:00:12.231Z,13.90
2018-12-02T08:02:46.728Z,13.70
2018-12-02T08:05:21.047Z,13.97
2018-12-02T08:08:09.273Z,14.80
2018-12-02T08:10:55.676Z,15.53
2018-12-02T08:13:33.322Z,16.63
2018-12-02T08:16:07.613Z,17.60
2018-12-02T08:18:41.889Z,16.57
2018-12-02T08:21:16.225Z,18.70
2018-12-02T08:24:00.583Z,17.93
2018-12-02T08:26:34.866Z,16.80
2018-12-02T08:29:09.135Z,16.90
2018-12-02T08:31:43.424Z,15.50
2018-12-02T08:34:17.792Z,14.07
2018-12-02T08:36:52.093Z,17.97
2018-12-02T08:39:26.489Z,16.97
2018-12-02T08:42:00.860Z,16.37
2018-12-02T08:44:35.220Z,15.80
2018-12-02T08:47:10.504Z,17.13
2018-12-02T08:49:44.859Z,17.63
2018-12-02T08:55:46.101Z,15.83
2018-12-02T08:58:29.834Z,17.93
2018-12-02T09:01:07.238Z,16.07
2018-12-02T09:03:41.553Z,15.87
2018-12-02T09:06:20.546Z,14.37
2018-12-02T09:08:54.981Z,15.77
2018-12-02T09:11:37.730Z,17.43
2018-12-02T09:14:13.281Z,15.60
2018-12-02T09:16:47.811Z,16.57
2018-12-02T09:19:24.656Z,15.47
2018-12-02T09:21:59.038Z,14.37
2018-12-02T09:24:33.616Z,17.33
2018-12-02T09:27:08.028Z,13.47
2018-12-02T09:29:49.381Z,12.90
2018-12-02T09:32:34.740Z,13.40
2018-12-02T09:35:17.411Z,14.37
2018-12-02T09:37:51.753Z,14.63
2018-12-02T09:40:26.164Z,13.07
2018-12-02T09:43:00.473Z,13.10
2018-12-02T09:45:36.334Z,12.37
2018-12-02T09:48:36.784Z,12.30
2018-12-02T09:51:34.676Z,13.10
2018-12-02T09:57:27.054Z,12.53
2018-12-02T10:00:16.447Z,12.30
2018-12-02T10:02:50.708Z,12.30
2018-12-02T10:05:25.037Z,14.10
2018-12-02T10:07:59.445Z,14.50
2018-12-02T10:10:33.724Z,13.77
2018-12-02T10:13:10.782Z,13.10
2018-12-02T10:19:15.978Z,12.30
2018-12-02T10:21:51.247Z,13.20
2018-12-02T10:27:47.048Z,11.83
2018-12-02T10:30:39.847Z,12.27
2018-12-02T10:33:18.786Z,14.43
2018-12-02T10:36:02.218Z,14.33
2018-12-02T10:38:37.591Z,13.20
2018-12-02T10:41:12.122Z,14.47
2018-12-02T10:43:46.449Z,14.50
2018-12-02T10:46:24.454Z,12.60
2018-12-02T10:49:27.287Z,12.53
2018-12-02T10:52:01.667Z,15.07
2018-12-02T10:54:35.964Z,14.23
2018-12-02T10:57:10.286Z,13.93
2018-12-02T10:59:44.601Z,13.43
2018-12-02T11:02:18.897Z,15.17
2018-12-02T11:04:53.177Z,14.50
2018-12-02T11:07:27.466Z,16.93
2018-12-02T11:10:01.811Z,16.80
2018-12-02T11:12:36.129Z,16.00
2018-12-02T11:15:13.884Z,15.80
2018-12-02T11:17:48.172Z,15.27
2018-12-02T11:20:22.504Z,14.47
2018-12-02T11:22:56.981Z,15.33
2018-12-02T11:25:31.325Z,15.77
2018-12-02T11:28:06.345Z,18.60
2018-12-02T11:30:40.866Z,15.03
2018-12-02T11:33:15.208Z,15.10
2018-12-02T11:35:49.485Z,16.73
2018-12-02T11:38:23.999Z,20.00
2018-12-02T11:40:58.347Z,18.03
2018-12-02T11:43:32.688Z,16.87
2018-12-02T11:46:07.123Z,16.43
2018-12-02T11:48:41.692Z,18.90
2018-12-02T11:51:26.389Z,20.27
2018-12-02T11:54:19.294Z,16.97
2018-12-02T11:56:55.331Z,15.73
2018-12-02T11:59:29.703Z,17.47
2018-12-02T12:02:07.666Z,18.10
2018-12-02T12:04:38.480Z,16.93
2018-12-02T12:07:12.865Z,15.00
2018-12-02T12:09:47.253Z,17.10
2018-12-02T12:12:21.729Z,17.37
2018-12-02T12:14:56.142Z,18.83
2018-12-02T12:17:38.772Z,17.73
2018-12-02T12:20:51.736Z,15.57
2018-12-02T12:23:26.953Z,14.90
2018-12-02T12:26:14.696Z,14.87
2018-12-02T12:28:58.585Z,16.03
2018-12-02T12:31:37.889Z,13.40
2018-12-02T12:34:12.630Z,14.33
2018-12-02T12:36:48.442Z,14.40
2018-12-02T12:39:26.174Z,13.87
2018-12-02T12:42:16.487Z,12.83
2018-12-02T12:45:01.090Z,14.40
2018-12-02T12:47:35.654Z,13.13
2018-12-02T12:50:12.049Z,12.03
2018-12-02T12:55:38.103Z,12.93
2018-12-02T12:58:13.585Z,13.30
2018-12-02T13:00:48.872Z,12.03
2018-12-02T13:03:37.962Z,13.37
2018-12-02T13:06:14.392Z,13.33
2018-12-02T13:08:49.334Z,13.43
2018-12-02T13:11:23.633Z,11.60
2018-12-02T13:13:58.290Z,13.70
2018-12-02T13:16:32.661Z,12.37
2018-12-02T13:19:07.026Z,12.23
2018-12-02T13:21:41.404Z,13.90
2018-12-02T13:24:15.736Z,13.00
2018-12-02T13:26:50.072Z,14.70
2018-12-02T13:29:24.512Z,15.27
2018-12-02T13:31:58.898Z,16.80
2018-12-02T13:34:33.325Z,15.70
2018-12-02T13:37:07.836Z,16.40
2018-12-02T15:41:15.707Z,12.23
2018-12-02T15:43:50.184Z,14.30
2018-12-02T15:46:25.417Z,12.40
2018-12-02T15:49:19.525Z,12.30
2018-12-02T15:52:04.097Z,13.07
2018-12-02T15:54:53.280Z,12.73
2018-12-02T15:57:52.535Z,12.13
2018-12-02T16:08:45.806Z,12.57
2018-12-02T16:25:19.340Z,15.57
2018-12-02T22:11:57.649Z,5.27
2018-12-02T22:14:31.925Z,4.50
2018-12-02T22:17:06.372Z,4.80
2018-12-02T22:19:44.565Z,4.13
2018-12-02T22:22:47.418Z,4.47
2018-12-02T22:25:28.567Z,5.23
2018-12-02T22:28:08.299Z,5.20
2018-12-02T22:30:43.607Z,4.80
2018-12-02T22:33:18.349Z,4.50
2018-12-02T22:35:57.426Z,4.63
2018-12-02T22:38:35.279Z,4.53
2018-12-02T22:41:12.694Z,4.30
2018-12-02T22:43:56.264Z,3.90
2018-12-02T22:46:33.357Z,3.90
2018-12-02T22:49:10.843Z,4.40
2018-12-02T22:51:45.584Z,4.10
2018-12-02T22:54:20.068Z,3.73
2018-12-02T22:56:56.618Z,3.90
2018-12-02T22:59:31.030Z,3.70
2018-12-02T23:02:10.965Z,3.40
2018-12-02T23:04:45.563Z,3.40
2018-12-02T23:07:19.920Z,3.80
2018-12-02T23:09:54.250Z,3.67
2018-12-02T23:12:28.518Z,3.67
2018-12-02T23:15:02.836Z,3.70
2018-12-02T23:17:37.127Z,4.13
2018-12-02T23:20:12.283Z,3.77
2018-12-02T23:22:46.693Z,4.47
2018-12-02T23:25:22.003Z,3.87
2018-12-02T23:27:57.200Z,3.70
2018-12-02T23:30:33.888Z,4.10
2018-12-02T23:33:08.618Z,4.00
2018-12-02T23:35:43.009Z,3.80
2018-12-02T23:38:17.334Z,3.70
2018-12-02T23:40:52.922Z,4.10
2018-12-02T23:43:36.379Z,4.30
2018-12-02T23:46:10.978Z,4.53
2018-12-02T23:48:50.187Z,4.43
2018-12-02T23:51:26.899Z,3.70
2018-12-02T23:54:03.107Z,3.53
2018-12-02T23:56:37.565Z,3.77
2018-12-02T23:59:12.027Z,3.53
